createdAt,value
2017-09-05T00:02:16.505Z,57.60
2017-09-05T00:04:44.557Z,57.60
2017-09-05T00:07:19.183Z,57.60
2017-09-05T00:09:46.769Z,58.20
2017-09-05T00:12:19.948Z,57.80
2017-09-05T00:14:48.096Z,57.80
2017-09-05T00:17:18.131Z,57.70
2017-09-05T00:19:52.678Z,57.70
2017-09-05T00:22:35.651Z,57.80
2017-09-05T00:25:04.154Z,58.00
2017-09-05T00:27:31.985Z,58.10
2017-09-05T00:29:59.462Z,58.10
2017-09-05T00:32:26.972Z,58.30
2017-09-05T00:34:54.477Z,58.30
2017-09-05T00:37:22.257Z,58.40
2017-09-05T00:39:50.495Z,58.40
2017-09-05T00:42:17.997Z,58.50
2017-09-05T00:44:46.046Z,58.40
2017-09-05T00:47:14.062Z,58.50
2017-09-05T00:49:41.581Z,58.50
2017-09-05T00:52:09.897Z,58.60
2017-09-05T00:54:38.081Z,58.50
2017-09-05T00:57:05.990Z,58.60
2017-09-05T00:59:33.502Z,59.20
2017-09-05T01:02:01.514Z,58.60
2017-09-05T01:04:29.029Z,58.80
2017-09-05T01:06:57.434Z,58.90
2017-09-05T01:09:25.484Z,58.90
2017-09-05T01:11:53.353Z,59.00
2017-09-05T01:14:20.954Z,59.10
2017-09-05T01:16:49.688Z,59.20
2017-09-05T01:19:17.380Z,59.10
2017-09-05T01:21:44.887Z,59.40
2017-09-05T01:24:13.656Z,59.60
2017-09-05T01:26:41.256Z,59.70
2017-09-05T01:29:08.770Z,59.70
2017-09-05T01:31:36.245Z,59.70
2017-09-05T01:34:03.758Z,59.90
2017-09-05T01:36:31.266Z,59.90
2017-09-05T01:38:59.223Z,59.70
2017-09-05T01:41:26.737Z,59.70
2017-09-05T01:43:55.415Z,59.80
2017-09-05T01:46:23.484Z,59.70
2017-09-05T01:48:51.419Z,60.50
2017-09-05T01:51:20.035Z,60.30
2017-09-05T01:53:47.808Z,59.90
2017-09-05T01:56:15.747Z,60.10
2017-09-05T01:58:43.712Z,60.10
2017-09-05T02:01:11.873Z,60.30
2017-09-05T02:03:39.563Z,60.30
2017-09-05T02:06:08.067Z,60.40
2017-09-05T02:08:35.572Z,60.50
2017-09-05T02:11:03.081Z,60.70
2017-09-05T02:13:30.557Z,60.60
2017-09-05T02:15:58.104Z,60.50
2017-09-05T02:18:25.976Z,60.50
2017-09-05T02:20:53.618Z,60.40
2017-09-05T02:23:21.576Z,60.40
2017-09-05T02:25:49.339Z,60.60
2017-09-05T02:28:17.397Z,60.50
2017-09-05T02:30:44.936Z,60.60
2017-09-05T02:33:13.165Z,60.70
2017-09-05T02:35:40.682Z,60.90
2017-09-05T02:38:09.494Z,61.00
2017-09-05T02:40:37.345Z,61.00
2017-09-05T02:43:05.396Z,61.10
2017-09-05T02:45:33.469Z,61.00
2017-09-05T02:48:01.229Z,60.70
2017-09-05T02:50:30.382Z,60.50
2017-09-05T02:52:58.684Z,60.50
2017-09-05T02:55:27.017Z,60.50
2017-09-05T02:57:55.052Z,60.60
2017-09-05T03:00:23.410Z,60.60
2017-09-05T03:02:51.282Z,60.20
2017-09-05T03:05:18.790Z,60.10
2017-09-05T03:07:46.305Z,60.40
2017-09-05T03:10:13.899Z,60.30
2017-09-05T03:12:41.715Z,60.60
2017-09-05T03:15:10.163Z,60.40
2017-09-05T03:17:37.851Z,60.20
2017-09-05T03:20:05.362Z,60.40
2017-09-05T03:22:33.321Z,60.40
2017-09-05T03:25:01.135Z,60.10
2017-09-05T03:27:28.992Z,60.70
2017-09-05T03:29:57.011Z,60.30
2017-09-05T03:32:24.944Z,60.70
2017-09-05T03:34:53.533Z,60.60
2017-09-05T03:37:21.337Z,60.50
2017-09-05T03:39:49.183Z,60.50
2017-09-05T03:42:16.694Z,60.30
2017-09-05T03:44:44.201Z,60.30
2017-09-05T03:47:12.098Z,60.20
2017-09-05T03:49:39.605Z,60.40
2017-09-05T03:52:07.121Z,60.20
2017-09-05T03:54:34.809Z,60.30
2017-09-05T03:57:02.951Z,59.90
2017-09-05T03:59:30.454Z,60.60
2017-09-05T04:01:58.417Z,61.10
2017-09-05T04:04:26.447Z,60.90
2017-09-05T04:06:54.176Z,60.50
2017-09-05T04:09:21.666Z,60.70
2017-09-05T04:11:49.625Z,61.00
2017-09-05T04:14:17.138Z,61.30
2017-09-05T04:16:44.625Z,61.10
2017-09-05T04:19:13.020Z,61.60
2017-09-05T04:21:41.615Z,61.80
2017-09-05T04:24:09.744Z,62.00
2017-09-05T04:26:37.542Z,62.00
2017-09-05T04:29:05.578Z,62.20
2017-09-05T04:31:33.052Z,62.20
2017-09-05T04:34:00.550Z,62.00
2017-09-05T04:36:28.519Z,62.30
2017-09-05T04:38:56.925Z,61.80
2017-09-05T04:41:24.439Z,61.50
2017-09-05T04:43:51.940Z,61.50
2017-09-05T04:46:20.453Z,61.80
2017-09-05T04:48:48.038Z,61.60
2017-09-05T04:51:15.787Z,61.70
2017-09-05T04:53:43.362Z,62.00
2017-09-05T04:56:12.236Z,62.50
2017-09-05T04:58:39.993Z,62.50
2017-09-05T05:01:08.037Z,62.20
2017-09-05T05:03:35.501Z,62.00
2017-09-05T05:06:04.112Z,62.00
2017-09-05T05:08:31.573Z,62.20
2017-09-05T05:10:59.060Z,62.10
2017-09-05T05:13:26.809Z,62.70
2017-09-05T05:15:54.561Z,62.40
2017-09-05T05:18:22.225Z,62.60
2017-09-05T05:20:49.713Z,62.80
2017-09-05T05:23:17.789Z,62.80
2017-09-05T05:25:45.737Z,62.90
2017-09-05T05:28:14.363Z,62.90
2017-09-05T05:30:41.862Z,63.30
2017-09-05T05:33:10.145Z,62.90
2017-09-05T05:35:37.598Z,62.90
2017-09-05T05:38:05.183Z,63.10
2017-09-05T05:40:32.625Z,63.10
2017-09-05T05:43:00.266Z,63.20
2017-09-05T05:45:27.718Z,63.30
2017-09-05T05:47:55.761Z,63.50
2017-09-05T05:50:23.710Z,63.80
2017-09-05T05:52:51.162Z,63.30
2017-09-05T05:55:18.622Z,63.30
2017-09-05T05:57:46.715Z,63.20
2017-09-05T06:00:16.548Z,63.10
2017-09-05T06:02:44.098Z,63.10
2017-09-05T06:05:11.730Z,63.40
2017-09-05T06:07:39.166Z,63.30
2017-09-05T06:10:06.996Z,63.20
2017-09-05T06:12:34.965Z,63.60
2017-09-05T06:15:02.887Z,63.70
2017-09-05T06:17:30.469Z,63.70
2017-09-05T06:19:58.184Z,63.40
2017-09-05T06:22:26.740Z,63.40
2017-09-05T06:24:55.345Z,63.60
2017-09-05T06:27:22.792Z,63.60
2017-09-05T06:29:50.706Z,63.80
2017-09-05T06:32:18.616Z,63.80
2017-09-05T06:34:46.829Z,64.00
2017-09-05T06:37:14.786Z,64.00
2017-09-05T06:39:42.601Z,63.90
2017-09-05T06:42:10.070Z,63.90
2017-09-05T06:44:37.616Z,64.40
2017-09-05T06:47:07.079Z,64.30
2017-09-05T06:49:34.763Z,64.40
2017-09-05T06:52:02.419Z,64.30
2017-09-05T06:54:30.631Z,64.60
2017-09-05T06:56:59.300Z,64.60
2017-09-05T06:59:26.910Z,64.70
2017-09-05T07:01:56.324Z,64.80
2017-09-05T07:04:23.899Z,64.90
2017-09-05T07:06:51.571Z,65.00
2017-09-05T07:09:19.331Z,64.70
2017-09-05T07:11:46.774Z,64.80
2017-09-05T07:14:14.251Z,64.80
2017-09-05T07:16:41.715Z,64.90
2017-09-05T07:19:09.393Z,65.00
2017-09-05T07:21:36.836Z,64.70
2017-09-05T07:24:04.958Z,65.00
2017-09-05T07:26:32.773Z,65.00
2017-09-05T07:29:00.333Z,65.00
2017-09-05T07:31:28.202Z,65.00
2017-09-05T07:33:55.744Z,65.20
2017-09-05T07:36:23.197Z,65.00
2017-09-05T07:38:51.266Z,64.80
2017-09-05T07:41:19.608Z,64.90
2017-09-05T07:43:47.224Z,65.20
2017-09-05T07:46:15.340Z,65.10
2017-09-05T07:48:43.388Z,65.20
2017-09-05T07:51:10.901Z,65.00
2017-09-05T07:53:38.349Z,65.20
2017-09-05T07:56:06.092Z,65.20
2017-09-05T07:58:34.048Z,65.40
2017-09-05T08:01:02.407Z,65.60
2017-09-05T08:03:29.856Z,65.70
2017-09-05T08:05:57.312Z,66.00
2017-09-05T08:08:25.036Z,66.30
2017-09-05T08:10:52.509Z,66.10
2017-09-05T08:13:20.017Z,66.20
2017-09-05T08:15:47.603Z,65.80
2017-09-05T08:18:15.150Z,65.90
2017-09-05T08:20:42.648Z,65.70
2017-09-05T08:23:10.501Z,65.80
2017-09-05T08:25:38.564Z,66.10
2017-09-05T08:28:06.834Z,65.90
2017-09-05T08:30:34.293Z,66.60
2017-09-05T08:33:01.788Z,66.60
2017-09-05T08:35:29.262Z,67.80
2017-09-05T08:37:57.152Z,67.00
2017-09-05T08:40:25.099Z,67.10
2017-09-05T08:42:52.625Z,66.20
2017-09-05T08:45:20.075Z,66.60
2017-09-05T08:47:48.159Z,66.50
2017-09-05T08:50:16.428Z,66.40
2017-09-05T08:52:43.890Z,66.90
2017-09-05T08:55:11.373Z,66.90
2017-09-05T08:57:39.417Z,66.90
2017-09-05T09:00:06.949Z,66.00
2017-09-05T09:02:34.818Z,66.70
2017-09-05T09:05:02.317Z,66.50
2017-09-05T09:07:29.831Z,66.30
2017-09-05T09:09:57.372Z,66.40
2017-09-05T09:12:24.871Z,66.80
2017-09-05T09:14:52.414Z,66.80
2017-09-05T09:17:19.993Z,66.50
2017-09-05T09:19:48.393Z,66.20
2017-09-05T09:22:15.917Z,66.00
2017-09-05T09:24:44.771Z,66.30
2017-09-05T09:27:12.668Z,66.20
2017-09-05T09:29:40.611Z,66.10
2017-09-05T09:32:08.162Z,67.00
2017-09-05T09:34:36.313Z,65.70
2017-09-05T09:37:04.678Z,65.70
2017-09-05T09:39:32.123Z,65.80
2017-09-05T09:41:59.589Z,65.40
2017-09-05T09:44:27.174Z,65.40
2017-09-05T09:46:55.102Z,65.90
2017-09-05T09:49:22.890Z,65.40
2017-09-05T09:51:51.157Z,65.10
2017-09-05T09:54:18.598Z,65.10
2017-09-05T09:56:46.893Z,64.30
2017-09-05T09:59:14.674Z,64.30
2017-09-05T10:01:42.562Z,64.30
2017-09-05T10:04:10.050Z,64.20
2017-09-05T10:06:37.507Z,63.10
2017-09-05T10:09:05.121Z,63.90
2017-09-05T10:11:32.596Z,62.90
2017-09-05T10:14:00.713Z,63.00
2017-09-05T10:16:28.177Z,63.30
2017-09-05T10:18:55.620Z,64.00
2017-09-05T10:21:24.262Z,63.40
2017-09-05T10:23:52.289Z,63.30
2017-09-05T10:26:20.209Z,62.00
2017-09-05T10:28:47.639Z,61.60
2017-09-05T10:31:15.132Z,61.70
2017-09-05T10:33:42.671Z,61.70
2017-09-05T10:36:10.184Z,62.30
2017-09-05T10:38:37.651Z,62.50
2017-09-05T10:41:05.098Z,61.20
2017-09-05T10:43:32.545Z,61.40
2017-09-05T10:46:00.734Z,61.40
2017-09-05T10:48:28.171Z,62.00
2017-09-05T10:50:55.775Z,61.30
2017-09-05T10:53:23.202Z,61.60
2017-09-05T10:55:50.889Z,61.00
2017-09-05T10:58:18.816Z,61.00
2017-09-05T11:00:46.695Z,60.70
2017-09-05T11:03:14.425Z,61.20
2017-09-05T11:05:41.857Z,61.40
2017-09-05T11:08:09.397Z,61.40
2017-09-05T11:10:36.822Z,61.70
2017-09-05T11:13:04.896Z,61.90
2017-09-05T11:15:32.946Z,61.10
2017-09-05T11:18:00.387Z,61.50
2017-09-05T11:20:28.379Z,61.20
2017-09-05T11:22:56.121Z,60.90
2017-09-05T11:25:23.791Z,60.90
2017-09-05T11:27:51.233Z,60.10
2017-09-05T11:30:18.716Z,60.90
2017-09-05T11:32:46.157Z,60.80
2017-09-05T11:35:13.617Z,60.40
2017-09-05T11:37:41.054Z,61.00
2017-09-05T11:40:08.736Z,61.50
2017-09-05T11:42:36.331Z,58.60
2017-09-05T11:45:05.158Z,58.80
2017-09-05T11:47:33.192Z,59.00
2017-09-05T11:50:01.046Z,59.40
2017-09-05T11:52:28.686Z,58.50
2017-09-05T11:54:56.170Z,58.10
2017-09-05T11:57:24.489Z,57.40
2017-09-05T11:59:52.334Z,57.30
2017-09-05T12:02:20.092Z,57.50
2017-09-05T12:04:47.800Z,57.50
2017-09-05T12:07:15.343Z,57.50
2017-09-05T12:09:42.888Z,57.50
2017-09-05T12:12:10.470Z,57.90
2017-09-05T12:14:37.963Z,58.40
2017-09-05T12:17:06.065Z,59.00
2017-09-05T12:19:33.880Z,58.70
2017-09-05T12:22:01.369Z,58.90
2017-09-05T12:24:29.306Z,59.00
2017-09-05T12:26:56.742Z,59.40
2017-09-05T12:29:24.206Z,59.50
2017-09-05T12:31:52.453Z,60.00
2017-09-05T12:34:19.884Z,60.00
2017-09-05T12:36:47.642Z,60.40
2017-09-05T12:39:16.114Z,59.80
2017-09-05T12:41:43.582Z,59.80
2017-09-05T12:44:12.014Z,60.10
2017-09-05T12:46:40.156Z,60.40
2017-09-05T12:49:07.598Z,60.30
2017-09-05T12:51:35.033Z,60.70
2017-09-05T12:54:02.562Z,60.80
2017-09-05T12:56:30.022Z,59.80
2017-09-05T12:58:58.795Z,60.80
2017-09-05T13:01:26.653Z,60.70
2017-09-05T13:03:54.501Z,59.60
2017-09-05T13:06:21.943Z,59.30
2017-09-05T13:08:49.577Z,59.30
2017-09-05T13:11:17.374Z,59.00
2017-09-05T13:13:45.217Z,58.90
2017-09-05T13:16:12.828Z,59.50
2017-09-05T13:18:40.488Z,59.50
2017-09-05T13:21:08.001Z,59.10
2017-09-05T13:23:37.615Z,59.30
2017-09-05T13:26:05.429Z,59.60
2017-09-05T13:28:32.988Z,60.30
2017-09-05T13:31:00.526Z,60.50
2017-09-05T13:33:28.463Z,61.50
2017-09-05T13:35:55.918Z,61.50
2017-09-05T13:38:23.694Z,61.20
2017-09-05T13:40:51.244Z,61.70
2017-09-05T13:43:18.729Z,62.30
2017-09-05T13:45:46.808Z,62.90
2017-09-05T13:48:14.828Z,61.70
2017-09-05T13:50:42.320Z,62.20
2017-09-05T13:53:11.433Z,61.50
2017-09-05T13:55:38.896Z,61.70
2017-09-05T13:58:06.736Z,61.70
2017-09-05T14:00:34.886Z,62.00
2017-09-05T14:03:02.346Z,61.80
2017-09-05T14:05:29.825Z,61.70
2017-09-05T14:07:57.284Z,61.90
2017-09-05T14:10:25.033Z,61.90
2017-09-05T14:12:52.580Z,61.40
2017-09-05T14:15:20.027Z,61.40
2017-09-05T14:17:47.713Z,61.40
2017-09-05T14:20:15.164Z,61.40
2017-09-05T14:22:43.081Z,61.30
2017-09-05T14:25:11.925Z,61.90
2017-09-05T14:27:39.636Z,61.90
2017-09-05T14:30:07.509Z,62.00
2017-09-05T14:32:34.948Z,61.90
2017-09-05T14:35:02.441Z,61.70
2017-09-05T14:37:29.882Z,60.60
2017-09-05T14:39:57.480Z,60.90
2017-09-05T14:42:24.916Z,61.20
2017-09-05T14:44:52.780Z,61.00
2017-09-05T14:47:20.591Z,61.10
2017-09-05T14:49:48.646Z,61.20
2017-09-05T14:52:16.198Z,61.20
2017-09-05T14:54:43.706Z,61.40
2017-09-05T14:57:12.756Z,61.30
2017-09-05T14:59:41.698Z,61.20
2017-09-05T15:02:09.678Z,61.60
2017-09-05T15:04:37.122Z,61.30
2017-09-05T15:07:04.623Z,61.00
2017-09-05T15:09:32.166Z,60.40
2017-09-05T15:11:59.614Z,60.40
2017-09-05T15:14:28.212Z,60.70
2017-09-05T15:16:55.889Z,60.40
2017-09-05T15:19:23.360Z,60.70
2017-09-05T15:21:50.820Z,60.80
2017-09-05T15:24:18.879Z,60.80
2017-09-05T15:26:46.326Z,61.30
2017-09-05T15:29:14.494Z,61.60
2017-09-05T15:31:43.001Z,61.40
2017-09-05T15:34:11.313Z,61.10
2017-09-05T15:36:38.873Z,61.70
2017-09-05T15:39:07.496Z,62.10
2017-09-05T15:41:34.952Z,63.10
2017-09-05T15:44:02.483Z,63.20
2017-09-05T15:46:30.880Z,63.40
2017-09-05T15:48:58.375Z,62.60
2017-09-05T15:51:25.824Z,61.20
2017-09-05T15:53:53.763Z,60.80
2017-09-05T15:56:21.590Z,60.90
2017-09-05T15:58:49.609Z,60.60
2017-09-05T16:01:17.565Z,59.80
2017-09-05T16:03:45.074Z,58.90
2017-09-05T16:06:14.911Z,59.50
2017-09-05T16:08:42.782Z,58.50
2017-09-05T16:11:10.306Z,58.60
2017-09-05T16:13:38.161Z,58.60
2017-09-05T16:16:06.239Z,58.40
2017-09-05T16:18:33.903Z,58.70
2017-09-05T16:21:01.359Z,58.70
2017-09-05T16:23:29.142Z,58.30
2017-09-05T16:25:56.960Z,58.70
2017-09-05T16:28:24.870Z,59.00
2017-09-05T16:30:53.884Z,58.40
2017-09-05T16:33:21.316Z,58.40
2017-09-05T16:35:49.329Z,58.20
2017-09-05T16:38:18.398Z,58.50
2017-09-05T16:40:45.900Z,58.00
2017-09-05T16:43:14.160Z,58.50
2017-09-05T16:45:42.255Z,58.50
2017-09-05T16:48:09.722Z,58.20
2017-09-05T16:50:37.295Z,57.90
2017-09-05T16:53:05.394Z,58.00
2017-09-05T16:55:33.820Z,57.90
2017-09-05T16:58:01.726Z,58.10
2017-09-05T17:00:30.425Z,58.00
2017-09-05T17:02:58.041Z,58.30
2017-09-05T17:05:25.512Z,58.10
2017-09-05T17:07:53.001Z,58.20
2017-09-05T17:10:20.525Z,58.40
2017-09-05T17:12:48.681Z,58.60
2017-09-05T17:15:16.119Z,58.20
2017-09-05T17:17:43.653Z,58.30
2017-09-05T17:20:11.300Z,58.50
2017-09-05T17:22:39.284Z,58.90
2017-09-05T17:25:07.260Z,58.80
2017-09-05T17:27:35.495Z,59.10
2017-09-05T17:30:03.375Z,59.10
2017-09-05T17:32:32.482Z,60.10
2017-09-05T17:34:59.926Z,60.10
2017-09-05T17:37:27.952Z,59.80
2017-09-05T17:39:56.678Z,59.70
2017-09-05T17:42:24.213Z,60.10
2017-09-05T17:44:52.815Z,60.40
2017-09-05T17:47:20.666Z,59.90
2017-09-05T17:49:49.442Z,61.80
2017-09-05T17:52:16.897Z,61.60
2017-09-05T17:54:44.348Z,61.50
2017-09-05T17:57:12.332Z,61.40
2017-09-05T17:59:41.616Z,61.60
2017-09-05T18:02:10.457Z,61.70
2017-09-05T18:04:38.032Z,62.50
2017-09-05T18:07:05.924Z,62.60
2017-09-05T18:09:33.433Z,62.80
2017-09-05T18:12:01.100Z,63.10
2017-09-05T18:14:28.555Z,63.60
2017-09-05T18:16:55.996Z,64.10
2017-09-05T18:19:23.508Z,64.10
2017-09-05T18:21:51.480Z,63.80
2017-09-05T18:24:19.917Z,64.10
2017-09-05T18:26:47.402Z,63.80
2017-09-05T18:29:15.014Z,64.00
2017-09-05T18:31:43.054Z,63.80
2017-09-05T18:34:11.777Z,63.80
2017-09-05T18:36:39.755Z,63.70
2017-09-05T18:39:08.249Z,64.00
2017-09-05T18:41:35.690Z,64.00
2017-09-05T18:44:03.503Z,64.10
2017-09-05T18:46:32.610Z,64.00
2017-09-05T18:49:00.803Z,62.80
2017-09-05T18:51:28.415Z,63.60
2017-09-05T18:53:55.871Z,63.20
2017-09-05T18:56:27.234Z,63.60
2017-09-05T18:58:55.345Z,64.20
2017-09-05T19:01:24.145Z,64.20
2017-09-05T19:03:52.005Z,64.50
2017-09-05T19:06:20.121Z,64.60
2017-09-05T19:08:47.609Z,65.40
2017-09-05T19:11:15.262Z,65.30
2017-09-05T19:13:43.898Z,65.60
2017-09-05T19:16:11.398Z,65.50
2017-09-05T19:18:38.861Z,65.00
2017-09-05T19:21:06.307Z,65.30
2017-09-05T19:23:34.228Z,65.10
2017-09-05T19:26:03.008Z,64.60
2017-09-05T19:28:31.713Z,64.60
2017-09-05T19:30:59.656Z,64.60
2017-09-05T19:33:27.576Z,64.90
2017-09-05T19:35:55.034Z,65.40
2017-09-05T19:38:23.536Z,65.80
2017-09-05T19:40:51.784Z,66.20
2017-09-05T19:43:19.255Z,66.20
2017-09-05T19:45:47.512Z,66.50
2017-09-05T19:48:15.600Z,66.70
2017-09-05T19:50:43.048Z,66.60
2017-09-05T19:53:10.478Z,66.60
2017-09-05T19:55:37.953Z,66.60
2017-09-05T19:58:06.141Z,65.60
2017-09-05T20:00:34.168Z,64.90
2017-09-05T20:03:01.585Z,64.70
2017-09-05T20:05:29.078Z,65.10
2017-09-05T20:07:57.342Z,65.60
2017-09-05T20:10:24.877Z,65.50
2017-09-05T20:12:52.322Z,65.10
2017-09-05T20:15:20.894Z,65.00
2017-09-05T20:17:48.360Z,64.90
2017-09-05T20:20:15.814Z,64.90
2017-09-05T20:22:43.679Z,65.00
2017-09-05T20:25:11.646Z,64.90
2017-09-05T20:27:39.497Z,65.00
2017-09-05T20:30:07.145Z,65.00
2017-09-05T20:32:35.002Z,65.20
2017-09-05T20:35:02.734Z,65.40
2017-09-05T20:37:30.233Z,66.20
2017-09-05T20:39:58.238Z,65.80
2017-09-05T20:42:25.998Z,65.70
2017-09-05T20:44:53.449Z,65.70
2017-09-05T20:47:21.899Z,65.90
2017-09-05T20:49:49.340Z,65.90
2017-09-05T20:52:17.495Z,66.00
2017-09-05T20:54:44.943Z,66.20
2017-09-05T20:57:12.923Z,66.30
2017-09-05T20:59:40.399Z,66.20
2017-09-05T21:02:08.325Z,66.40
2017-09-05T21:04:35.796Z,67.10
2017-09-05T21:07:03.240Z,66.50
2017-09-05T21:09:30.706Z,66.70
2017-09-05T21:11:58.649Z,66.70
2017-09-05T21:14:26.108Z,66.90
2017-09-05T21:16:53.836Z,66.80
2017-09-05T21:19:21.552Z,67.00
2017-09-05T21:21:48.995Z,67.10
2017-09-05T21:24:17.700Z,67.20
2017-09-05T21:26:45.217Z,67.30
2017-09-05T21:29:13.670Z,67.40
2017-09-05T21:31:42.172Z,67.70
2017-09-05T21:34:09.678Z,67.70
2017-09-05T21:36:37.133Z,68.10
2017-09-05T21:39:05.201Z,68.30
2017-09-05T21:41:32.661Z,68.60
2017-09-05T21:44:00.093Z,69.00
2017-09-05T21:46:28.005Z,69.30
2017-09-05T21:48:55.455Z,69.60
2017-09-05T21:51:23.192Z,69.70
2017-09-05T21:53:51.862Z,70.50
2017-09-05T21:56:19.306Z,70.20
2017-09-05T21:58:47.123Z,70.10
2017-09-05T22:01:16.267Z,70.50
2017-09-05T22:03:44.137Z,70.50
2017-09-05T22:06:14.177Z,71.40
2017-09-05T22:08:41.851Z,71.00
2017-09-05T22:11:09.369Z,71.30
2017-09-05T22:13:36.924Z,71.60
2017-09-05T22:16:04.758Z,71.80
2017-09-05T22:18:38.218Z,72.00
2017-09-05T22:24:04.321Z,72.00
2017-09-05T22:26:38.490Z,72.30
2017-09-05T22:29:09.826Z,72.20
2017-09-05T22:31:37.305Z,72.40
2017-09-05T22:34:04.772Z,72.50
2017-09-05T22:36:32.304Z,72.60
2017-09-05T22:38:59.840Z,72.10
2017-09-05T22:41:27.646Z,71.80
2017-09-05T22:43:58.886Z,71.80
2017-09-05T22:46:30.459Z,71.90
2017-09-05T22:49:00.869Z,71.00
2017-09-05T22:51:32.312Z,71.00
2017-09-05T22:54:04.347Z,70.60
2017-09-05T22:56:32.349Z,69.40
2017-09-05T22:59:00.389Z,69.20
2017-09-05T23:01:28.443Z,69.20
2017-09-05T23:03:56.250Z,69.70
2017-09-05T23:06:23.747Z,68.90
2017-09-05T23:08:51.256Z,68.60
2017-09-05T23:11:19.396Z,68.50
2017-09-05T23:13:47.355Z,68.40
2017-09-05T23:16:14.963Z,68.70
2017-09-05T23:18:42.829Z,68.40
2017-09-05T23:21:11.147Z,69.20
2017-09-05T23:23:39.040Z,68.40
2017-09-05T23:26:06.892Z,68.50
2017-09-05T23:28:34.450Z,69.40
2017-09-05T23:31:02.009Z,68.90
2017-09-05T23:33:29.521Z,69.30
2017-09-05T23:35:57.035Z,69.80
2017-09-05T23:38:24.630Z,70.10
2017-09-05T23:40:52.231Z,69.80
2017-09-05T23:43:19.745Z,69.90
2017-09-05T23:45:48.153Z,69.80
2017-09-05T23:48:16.020Z,69.90
2017-09-05T23:50:43.941Z,69.40
2017-09-05T23:53:11.813Z,69.10
2017-09-05T23:55:40.037Z,69.00
2017-09-05T23:58:08.627Z,68.20
